sensor_id;sensor_type;location;lat;lon;timestamp;P1;durP1;ratioP1;P2;durP2;ratioP2
20954;SDS011;10636;19.390;-99.256;2023-02-28T00:01:42;8.63;;;7.82;;
20954;SDS011;10636;19.390;-99.256;2023-02-28T00:04:12;8.70;;;7.85;;
20954;SDS011;10636;19.390;-99.256;2023-02-28T00:06:44;8.45;;;7.65;;
20954;SDS011;10636;19.390;-99.256;2023-02-28T00:09:14;8.63;;;7.82;;
20954;SDS011;10636;19.390;-99.256;2023-02-28T00:11:44;8.52;;;7.82;;
20954;SDS011;10636;19.390;-99.256;2023-02-28T00:14:13;8.60;;;7.80;;
20954;SDS011;10636;19.390;-99.256;2023-02-28T00:16:41;8.15;;;7.35;;
20954;SDS011;10636;19.390;-99.256;2023-02-28T00:19:11;8.15;;;7.32;;
20954;SDS011;10636;19.390;-99.256;2023-02-28T00:21:40;8.77;;;7.93;;
20954;SDS011;10636;19.390;-99.256;2023-02-28T00:24:09;9.18;;;8.25;;
20954;SDS011;10636;19.390;-99.256;2023-02-28T00:26:40;9.25;;;8.32;;
20954;SDS011;10636;19.390;-99.256;2023-02-28T00:29:12;8.98;;;8.18;;
20954;SDS011;10636;19.390;-99.256;2023-02-28T00:31:41;9.25;;;8.35;;
20954;SDS011;10636;19.390;-99.256;2023-02-28T00:34:10;8.80;;;7.97;;
20954;SDS011;10636;19.390;-99.256;2023-02-28T00:36:41;9.18;;;8.25;;
20954;SDS011;10636;19.390;-99.256;2023-02-28T00:39:11;8.65;;;7.85;;
20954;SDS011;10636;19.390;-99.256;2023-02-28T00:41:40;9.05;;;8.18;;
20954;SDS011;10636;19.390;-99.256;2023-02-28T00:44:08;9.55;;;8.13;;
20954;SDS011;10636;19.390;-99.256;2023-02-28T00:46:39;9.25;;;8.38;;
20954;SDS011;10636;19.390;-99.256;2023-02-28T00:49:07;9.27;;;8.35;;
20954;SDS011;10636;19.390;-99.256;2023-02-28T00:51:36;9.52;;;8.55;;
20954;SDS011;10636;19.390;-99.256;2023-02-28T00:54:04;10.68;;;9.00;;
20954;SDS011;10636;19.390;-99.256;2023-02-28T00:56:33;9.63;;;8.65;;
20954;SDS011;10636;19.390;-99.256;2023-02-28T00:59:04;9.68;;;8.52;;
20954;SDS011;10636;19.390;-99.256;2023-02-28T01:01:33;10.27;;;9.05;;
20954;SDS011;10636;19.390;-99.256;2023-02-28T01:04:04;10.05;;;9.07;;
20954;SDS011;10636;19.390;-99.256;2023-02-28T01:06:32;11.10;;;8.85;;
20954;SDS011;10636;19.390;-99.256;2023-02-28T01:09:03;10.52;;;9.35;;
20954;SDS011;10636;19.390;-99.256;2023-02-28T01:11:33;10.75;;;8.93;;
20954;SDS011;10636;19.390;-99.256;2023-02-28T01:14:02;9.35;;;8.32;;
20954;SDS011;10636;19.390;-99.256;2023-02-28T01:16:31;9.02;;;8.13;;
20954;SDS011;10636;19.390;-99.256;2023-02-28T01:19:00;9.68;;;8.38;;
20954;SDS011;10636;19.390;-99.256;2023-02-28T01:21:30;11.35;;;8.63;;
20954;SDS011;10636;19.390;-99.256;2023-02-28T01:24:00;10.10;;;8.35;;
20954;SDS011;10636;19.390;-99.256;2023-02-28T01:26:30;9.85;;;8.85;;
20954;SDS011;10636;19.390;-99.256;2023-02-28T01:28:58;9.90;;;8.88;;
20954;SDS011;10636;19.390;-99.256;2023-02-28T01:31:27;9.38;;;8.32;;
20954;SDS011;10636;19.390;-99.256;2023-02-28T01:33:56;10.25;;;7.43;;
20954;SDS011;10636;19.390;-99.256;2023-02-28T01:36:25;8.90;;;8.10;;
20954;SDS011;10636;19.390;-99.256;2023-02-28T01:38:55;10.00;;;8.50;;
20954;SDS011;10636;19.390;-99.256;2023-02-28T01:41:25;9.68;;;8.60;;
20954;SDS011;10636;19.390;-99.256;2023-02-28T01:43:59;11.60;;;9.40;;
20954;SDS011;10636;19.390;-99.256;2023-02-28T01:46:33;10.73;;;8.93;;
20954;SDS011;10636;19.390;-99.256;2023-02-28T01:49:05;9.75;;;7.95;;
20954;SDS011;10636;19.390;-99.256;2023-02-28T01:51:38;9.50;;;8.40;;
20954;SDS011;10636;19.390;-99.256;2023-02-28T01:54:18;9.82;;;8.75;;
20954;SDS011;10636;19.390;-99.256;2023-02-28T01:56:51;11.40;;;9.68;;
20954;SDS011;10636;19.390;-99.256;2023-02-28T01:59:23;11.68;;;8.77;;
20954;SDS011;10636;19.390;-99.256;2023-02-28T02:01:57;13.20;;;9.00;;
20954;SDS011;10636;19.390;-99.256;2023-02-28T02:04:26;11.65;;;9.13;;
20954;SDS011;10636;19.390;-99.256;2023-02-28T02:07:00;14.00;;;7.93;;
20954;SDS011;10636;19.390;-99.256;2023-02-28T02:09:31;8.07;;;6.88;;
20954;SDS011;10636;19.390;-99.256;2023-02-28T02:12:00;12.02;;;6.50;;
20954;SDS011;10636;19.390;-99.256;2023-02-28T02:14:50;9.23;;;6.20;;
20954;SDS011;10636;19.390;-99.256;2023-02-28T02:17:28;10.20;;;5.78;;
20954;SDS011;10636;19.390;-99.256;2023-02-28T02:23:20;8.45;;;4.78;;
20954;SDS011;10636;19.390;-99.256;2023-02-28T02:26:01;7.20;;;4.28;;
20954;SDS011;10636;19.390;-99.256;2023-02-28T02:28:59;6.05;;;4.57;;
20954;SDS011;10636;19.390;-99.256;2023-02-28T02:31:51;6.68;;;3.97;;
20954;SDS011;10636;19.390;-99.256;2023-02-28T02:37:31;6.80;;;3.60;;
20954;SDS011;10636;19.390;-99.256;2023-02-28T02:40:09;10.20;;;3.38;;
20954;SDS011;10636;19.390;-99.256;2023-02-28T02:42:42;7.00;;;3.70;;
20954;SDS011;10636;19.390;-99.256;2023-02-28T02:45:17;6.10;;;4.10;;
20954;SDS011;10636;19.390;-99.256;2023-02-28T02:47:51;6.43;;;4.63;;
20954;SDS011;10636;19.390;-99.256;2023-02-28T02:50:23;7.80;;;4.80;;
20954;SDS011;10636;19.390;-99.256;2023-02-28T02:52:57;5.72;;;3.97;;
20954;SDS011;10636;19.390;-99.256;2023-02-28T02:55:29;8.38;;;4.57;;
20954;SDS011;10636;19.390;-99.256;2023-02-28T02:58:02;7.20;;;4.10;;
20954;SDS011;10636;19.390;-99.256;2023-02-28T03:00:36;5.45;;;3.70;;
20954;SDS011;10636;19.390;-99.256;2023-02-28T03:03:08;4.57;;;3.63;;
20954;SDS011;10636;19.390;-99.256;2023-02-28T03:05:41;6.90;;;4.15;;
20954;SDS011;10636;19.390;-99.256;2023-02-28T03:08:13;7.55;;;4.00;;
20954;SDS011;10636;19.390;-99.256;2023-02-28T03:10:42;7.00;;;3.97;;
20954;SDS011;10636;19.390;-99.256;2023-02-28T03:16:21;4.88;;;3.50;;
20954;SDS011;10636;19.390;-99.256;2023-02-28T03:19:02;5.05;;;3.20;;
20954;SDS011;10636;19.390;-99.256;2023-02-28T03:21:46;4.50;;;3.33;;
20954;SDS011;10636;19.390;-99.256;2023-02-28T03:24:24;4.75;;;3.42;;
20954;SDS011;10636;19.390;-99.256;2023-02-28T03:27:04;4.85;;;3.20;;
20954;SDS011;10636;19.390;-99.256;2023-02-28T03:29:37;5.93;;;3.13;;
20954;SDS011;10636;19.390;-99.256;2023-02-28T03:32:13;6.68;;;3.28;;
20954;SDS011;10636;19.390;-99.256;2023-02-28T03:34:48;7.90;;;3.65;;
20954;SDS011;10636;19.390;-99.256;2023-02-28T03:37:24;5.97;;;3.50;;
20954;SDS011;10636;19.390;-99.256;2023-02-28T03:39:57;5.50;;;3.40;;
20954;SDS011;10636;19.390;-99.256;2023-02-28T03:42:29;4.45;;;3.38;;
20954;SDS011;10636;19.390;-99.256;2023-02-28T03:45:02;6.32;;;3.90;;
20954;SDS011;10636;19.390;-99.256;2023-02-28T03:47:35;5.13;;;3.80;;
20954;SDS011;10636;19.390;-99.256;2023-02-28T03:50:07;8.18;;;3.72;;
20954;SDS011;10636;19.390;-99.256;2023-02-28T03:52:42;6.75;;;3.78;;
20954;SDS011;10636;19.390;-99.256;2023-02-28T03:55:15;6.57;;;3.90;;
20954;SDS011;10636;19.390;-99.256;2023-02-28T03:57:50;6.47;;;3.72;;
20954;SDS011;10636;19.390;-99.256;2023-02-28T04:00:26;6.60;;;3.70;;
20954;SDS011;10636;19.390;-99.256;2023-02-28T04:02:58;5.43;;;3.28;;
20954;SDS011;10636;19.390;-99.256;2023-02-28T04:05:27;6.95;;;4.20;;
20954;SDS011;10636;19.390;-99.256;2023-02-28T04:08:05;5.32;;;3.60;;
20954;SDS011;10636;19.390;-99.256;2023-02-28T04:10:35;7.53;;;3.80;;
20954;SDS011;10636;19.390;-99.256;2023-02-28T04:13:03;3.53;;;3.08;;
20954;SDS011;10636;19.390;-99.256;2023-02-28T04:15:32;5.65;;;3.40;;
20954;SDS011;10636;19.390;-99.256;2023-02-28T04:18:03;8.48;;;3.65;;
20954;SDS011;10636;19.390;-99.256;2023-02-28T04:20:32;6.55;;;3.45;;
20954;SDS011;10636;19.390;-99.256;2023-02-28T04:23:01;3.55;;;3.20;;
20954;SDS011;10636;19.390;-99.256;2023-02-28T04:25:31;5.28;;;3.33;;
20954;SDS011;10636;19.390;-99.256;2023-02-28T04:27:59;5.47;;;3.63;;
20954;SDS011;10636;19.390;-99.256;2023-02-28T04:30:28;5.88;;;3.70;;
20954;SDS011;10636;19.390;-99.256;2023-02-28T04:32:58;7.30;;;3.70;;
20954;SDS011;10636;19.390;-99.256;2023-02-28T04:35:27;4.18;;;3.05;;
20954;SDS011;10636;19.390;-99.256;2023-02-28T04:37:55;4.75;;;4.00;;
20954;SDS011;10636;19.390;-99.256;2023-02-28T04:40:24;5.45;;;3.63;;
20954;SDS011;10636;19.390;-99.256;2023-02-28T04:42:54;7.60;;;3.88;;
20954;SDS011;10636;19.390;-99.256;2023-02-28T04:45:23;5.25;;;3.55;;
20954;SDS011;10636;19.390;-99.256;2023-02-28T04:47:52;6.13;;;4.20;;
20954;SDS011;10636;19.390;-99.256;2023-02-28T04:50:20;8.50;;;4.20;;
20954;SDS011;10636;19.390;-99.256;2023-02-28T04:52:50;5.50;;;5.00;;
20954;SDS011;10636;19.390;-99.256;2023-02-28T04:55:20;5.13;;;4.20;;
20954;SDS011;10636;19.390;-99.256;2023-02-28T04:57:49;6.40;;;4.25;;
20954;SDS011;10636;19.390;-99.256;2023-02-28T05:00:20;5.30;;;4.65;;
20954;SDS011;10636;19.390;-99.256;2023-02-28T05:02:49;7.60;;;5.47;;
20954;SDS011;10636;19.390;-99.256;2023-02-28T05:05:17;6.43;;;4.85;;
20954;SDS011;10636;19.390;-99.256;2023-02-28T05:07:46;6.10;;;5.47;;
20954;SDS011;10636;19.390;-99.256;2023-02-28T05:10:15;8.27;;;5.60;;
20954;SDS011;10636;19.390;-99.256;2023-02-28T05:12:44;7.78;;;5.90;;
20954;SDS011;10636;19.390;-99.256;2023-02-28T05:15:14;6.90;;;5.22;;
20954;SDS011;10636;19.390;-99.256;2023-02-28T05:17:45;5.97;;;5.25;;
20954;SDS011;10636;19.390;-99.256;2023-02-28T05:20:14;7.28;;;5.90;;
20954;SDS011;10636;19.390;-99.256;2023-02-28T05:22:43;7.72;;;5.75;;
20954;SDS011;10636;19.390;-99.256;2023-02-28T05:25:12;9.32;;;6.18;;
20954;SDS011;10636;19.390;-99.256;2023-02-28T05:27:44;8.30;;;5.25;;
20954;SDS011;10636;19.390;-99.256;2023-02-28T05:30:12;6.95;;;5.70;;
20954;SDS011;10636;19.390;-99.256;2023-02-28T05:32:41;8.82;;;5.78;;
20954;SDS011;10636;19.390;-99.256;2023-02-28T05:35:12;8.60;;;5.47;;
20954;SDS011;10636;19.390;-99.256;2023-02-28T05:37:41;7.20;;;5.60;;
20954;SDS011;10636;19.390;-99.256;2023-02-28T05:40:10;9.30;;;6.30;;
20954;SDS011;10636;19.390;-99.256;2023-02-28T05:42:39;7.28;;;5.72;;
20954;SDS011;10636;19.390;-99.256;2023-02-28T05:45:08;8.25;;;5.65;;
20954;SDS011;10636;19.390;-99.256;2023-02-28T05:47:37;7.38;;;5.88;;
20954;SDS011;10636;19.390;-99.256;2023-02-28T05:50:09;7.35;;;6.00;;
20954;SDS011;10636;19.390;-99.256;2023-02-28T05:52:39;7.00;;;6.25;;
20954;SDS011;10636;19.390;-99.256;2023-02-28T05:55:08;8.85;;;6.45;;
20954;SDS011;10636;19.390;-99.256;2023-02-28T05:57:39;9.13;;;6.43;;
20954;SDS011;10636;19.390;-99.256;2023-02-28T06:00:08;7.38;;;6.25;;
20954;SDS011;10636;19.390;-99.256;2023-02-28T06:02:40;7.07;;;6.20;;
20954;SDS011;10636;19.390;-99.256;2023-02-28T06:05:09;7.63;;;6.70;;
20954;SDS011;10636;19.390;-99.256;2023-02-28T06:07:43;7.28;;;6.25;;
20954;SDS011;10636;19.390;-99.256;2023-02-28T06:10:12;8.63;;;6.32;;
20954;SDS011;10636;19.390;-99.256;2023-02-28T06:12:41;9.65;;;7.00;;
20954;SDS011;10636;19.390;-99.256;2023-02-28T06:15:11;7.40;;;6.70;;
20954;SDS011;10636;19.390;-99.256;2023-02-28T06:17:42;10.25;;;6.35;;
20954;SDS011;10636;19.390;-99.256;2023-02-28T06:20:12;9.43;;;6.55;;
20954;SDS011;10636;19.390;-99.256;2023-02-28T06:22:40;6.28;;;5.68;;
20954;SDS011;10636;19.390;-99.256;2023-02-28T06:25:10;6.65;;;5.85;;
20954;SDS011;10636;19.390;-99.256;2023-02-28T06:27:39;10.35;;;6.13;;
20954;SDS011;10636;19.390;-99.256;2023-02-28T06:30:09;7.28;;;6.40;;
20954;SDS011;10636;19.390;-99.256;2023-02-28T06:32:38;7.03;;;6.25;;
20954;SDS011;10636;19.390;-99.256;2023-02-28T06:35:07;8.10;;;6.40;;
20954;SDS011;10636;19.390;-99.256;2023-02-28T06:37:36;7.07;;;6.38;;
20954;SDS011;10636;19.390;-99.256;2023-02-28T06:40:07;7.10;;;6.32;;
20954;SDS011;10636;19.390;-99.256;2023-02-28T06:42:36;6.53;;;5.90;;
20954;SDS011;10636;19.390;-99.256;2023-02-28T06:45:05;8.93;;;6.05;;
20954;SDS011;10636;19.390;-99.256;2023-02-28T06:47:36;7.07;;;5.82;;
20954;SDS011;10636;19.390;-99.256;2023-02-28T06:50:06;7.93;;;6.47;;
20954;SDS011;10636;19.390;-99.256;2023-02-28T06:52:36;11.70;;;6.28;;
20954;SDS011;10636;19.390;-99.256;2023-02-28T06:55:07;6.93;;;6.18;;
20954;SDS011;10636;19.390;-99.256;2023-02-28T06:57:36;7.50;;;6.00;;
20954;SDS011;10636;19.390;-99.256;2023-02-28T07:00:06;8.80;;;6.35;;
20954;SDS011;10636;19.390;-99.256;2023-02-28T07:02:36;6.70;;;5.85;;
20954;SDS011;10636;19.390;-99.256;2023-02-28T07:05:05;7.00;;;6.30;;
20954;SDS011;10636;19.390;-99.256;2023-02-28T07:07:34;7.43;;;6.38;;
20954;SDS011;10636;19.390;-99.256;2023-02-28T07:10:10;6.93;;;6.10;;
20954;SDS011;10636;19.390;-99.256;2023-02-28T07:12:42;6.43;;;5.72;;
20954;SDS011;10636;19.390;-99.256;2023-02-28T07:15:11;7.70;;;5.82;;
20954;SDS011;10636;19.390;-99.256;2023-02-28T07:17:42;6.80;;;5.60;;
20954;SDS011;10636;19.390;-99.256;2023-02-28T07:20:12;9.65;;;5.97;;
20954;SDS011;10636;19.390;-99.256;2023-02-28T07:22:40;6.78;;;6.07;;
20954;SDS011;10636;19.390;-99.256;2023-02-28T07:25:11;7.50;;;5.70;;
20954;SDS011;10636;19.390;-99.256;2023-02-28T07:27:39;6.32;;;5.72;;
20954;SDS011;10636;19.390;-99.256;2023-02-28T07:30:08;6.35;;;5.57;;
20954;SDS011;10636;19.390;-99.256;2023-02-28T07:32:38;6.53;;;5.55;;
20954;SDS011;10636;19.390;-99.256;2023-02-28T07:35:07;6.07;;;5.32;;
20954;SDS011;10636;19.390;-99.256;2023-02-28T07:37:36;6.43;;;5.40;;
20954;SDS011;10636;19.390;-99.256;2023-02-28T07:40:05;6.18;;;5.22;;
20954;SDS011;10636;19.390;-99.256;2023-02-28T07:42:37;6.82;;;5.47;;
20954;SDS011;10636;19.390;-99.256;2023-02-28T07:45:06;5.68;;;5.10;;
20954;SDS011;10636;19.390;-99.256;2023-02-28T07:47:37;6.28;;;5.03;;
20954;SDS011;10636;19.390;-99.256;2023-02-28T07:50:06;5.90;;;5.30;;
20954;SDS011;10636;19.390;-99.256;2023-02-28T07:52:36;5.95;;;5.35;;
20954;SDS011;10636;19.390;-99.256;2023-02-28T07:55:05;6.28;;;4.93;;
20954;SDS011;10636;19.390;-99.256;2023-02-28T07:57:35;6.18;;;5.35;;
20954;SDS011;10636;19.390;-99.256;2023-02-28T08:00:06;5.47;;;4.97;;
20954;SDS011;10636;19.390;-99.256;2023-02-28T08:02:36;5.93;;;5.30;;
20954;SDS011;10636;19.390;-99.256;2023-02-28T08:05:05;6.00;;;5.38;;
20954;SDS011;10636;19.390;-99.256;2023-02-28T08:07:35;6.20;;;4.80;;
20954;SDS011;10636;19.390;-99.256;2023-02-28T08:10:04;5.80;;;5.20;;
20954;SDS011;10636;19.390;-99.256;2023-02-28T08:12:37;5.53;;;5.03;;
20954;SDS011;10636;19.390;-99.256;2023-02-28T08:15:06;5.75;;;4.90;;
20954;SDS011;10636;19.390;-99.256;2023-02-28T08:17:35;5.50;;;5.00;;
20954;SDS011;10636;19.390;-99.256;2023-02-28T08:20:04;6.82;;;4.75;;
20954;SDS011;10636;19.390;-99.256;2023-02-28T08:22:34;5.57;;;4.95;;
20954;SDS011;10636;19.390;-99.256;2023-02-28T08:25:03;5.90;;;4.72;;
20954;SDS011;10636;19.390;-99.256;2023-02-28T08:27:33;5.93;;;5.05;;
20954;SDS011;10636;19.390;-99.256;2023-02-28T08:30:03;5.60;;;4.80;;
20954;SDS011;10636;19.390;-99.256;2023-02-28T08:32:32;5.50;;;4.90;;
20954;SDS011;10636;19.390;-99.256;2023-02-28T08:35:01;4.97;;;4.47;;
20954;SDS011;10636;19.390;-99.256;2023-02-28T08:37:30;5.15;;;4.65;;
20954;SDS011;10636;19.390;-99.256;2023-02-28T08:39:59;5.63;;;4.50;;
20954;SDS011;10636;19.390;-99.256;2023-02-28T08:42:28;5.47;;;4.60;;
20954;SDS011;10636;19.390;-99.256;2023-02-28T08:44:56;5.88;;;4.80;;
20954;SDS011;10636;19.390;-99.256;2023-02-28T08:47:27;5.20;;;4.70;;
20954;SDS011;10636;19.390;-99.256;2023-02-28T08:49:55;4.70;;;4.30;;
20954;SDS011;10636;19.390;-99.256;2023-02-28T08:52:24;5.20;;;4.35;;
20954;SDS011;10636;19.390;-99.256;2023-02-28T08:54:52;5.80;;;4.55;;
20954;SDS011;10636;19.390;-99.256;2023-02-28T08:57:21;5.20;;;4.70;;
20954;SDS011;10636;19.390;-99.256;2023-02-28T08:59:51;5.07;;;4.40;;
20954;SDS011;10636;19.390;-99.256;2023-02-28T09:02:20;4.50;;;3.88;;
20954;SDS011;10636;19.390;-99.256;2023-02-28T09:04:50;5.50;;;4.05;;
20954;SDS011;10636;19.390;-99.256;2023-02-28T09:07:18;4.57;;;4.18;;
20954;SDS011;10636;19.390;-99.256;2023-02-28T09:09:47;4.32;;;3.92;;
20954;SDS011;10636;19.390;-99.256;2023-02-28T09:12:23;4.53;;;4.13;;
20954;SDS011;10636;19.390;-99.256;2023-02-28T09:14:53;4.30;;;3.90;;
20954;SDS011;10636;19.390;-99.256;2023-02-28T09:17:21;4.35;;;3.95;;
20954;SDS011;10636;19.390;-99.256;2023-02-28T09:19:52;5.03;;;3.83;;
20954;SDS011;10636;19.390;-99.256;2023-02-28T09:22:20;4.40;;;4.00;;
20954;SDS011;10636;19.390;-99.256;2023-02-28T09:24:49;5.15;;;3.88;;
20954;SDS011;10636;19.390;-99.256;2023-02-28T09:27:17;4.25;;;3.85;;
20954;SDS011;10636;19.390;-99.256;2023-02-28T09:29:46;4.03;;;3.72;;
20954;SDS011;10636;19.390;-99.256;2023-02-28T09:32:15;5.53;;;3.60;;
20954;SDS011;10636;19.390;-99.256;2023-02-28T09:34:43;4.10;;;3.60;;
20954;SDS011;10636;19.390;-99.256;2023-02-28T09:37:14;4.45;;;3.67;;
20954;SDS011;10636;19.390;-99.256;2023-02-28T09:39:42;3.83;;;3.35;;
20954;SDS011;10636;19.390;-99.256;2023-02-28T09:42:13;4.72;;;4.00;;
20954;SDS011;10636;19.390;-99.256;2023-02-28T09:44:49;5.63;;;3.60;;
20954;SDS011;10636;19.390;-99.256;2023-02-28T09:47:21;4.85;;;3.90;;
20954;SDS011;10636;19.390;-99.256;2023-02-28T09:49:59;3.90;;;3.40;;
20954;SDS011;10636;19.390;-99.256;2023-02-28T09:52:40;4.65;;;3.97;;
20954;SDS011;10636;19.390;-99.256;2023-02-28T09:55:16;3.90;;;3.50;;
20954;SDS011;10636;19.390;-99.256;2023-02-28T09:57:48;4.75;;;3.88;;
20954;SDS011;10636;19.390;-99.256;2023-02-28T10:00:19;3.80;;;3.40;;
20954;SDS011;10636;19.390;-99.256;2023-02-28T10:03:03;5.32;;;3.53;;
20954;SDS011;10636;19.390;-99.256;2023-02-28T10:05:35;5.00;;;3.42;;
20954;SDS011;10636;19.390;-99.256;2023-02-28T10:08:10;3.90;;;3.38;;
20954;SDS011;10636;19.390;-99.256;2023-02-28T10:10:42;3.67;;;3.38;;
20954;SDS011;10636;19.390;-99.256;2023-02-28T10:13:14;3.85;;;3.45;;
20954;SDS011;10636;19.390;-99.256;2023-02-28T10:15:49;4.00;;;3.70;;
20954;SDS011;10636;19.390;-99.256;2023-02-28T10:18:21;3.63;;;3.33;;
20954;SDS011;10636;19.390;-99.256;2023-02-28T10:20:55;4.47;;;3.30;;
20954;SDS011;10636;19.390;-99.256;2023-02-28T10:23:28;5.10;;;3.42;;
20954;SDS011;10636;19.390;-99.256;2023-02-28T10:26:05;4.35;;;3.40;;
20954;SDS011;10636;19.390;-99.256;2023-02-28T10:28:41;3.90;;;3.50;;
20954;SDS011;10636;19.390;-99.256;2023-02-28T10:31:11;4.53;;;3.50;;
20954;SDS011;10636;19.390;-99.256;2023-02-28T10:33:42;3.78;;;3.10;;
20954;SDS011;10636;19.390;-99.256;2023-02-28T10:36:12;4.63;;;3.25;;
20954;SDS011;10636;19.390;-99.256;2023-02-28T10:38:45;3.60;;;3.30;;
20954;SDS011;10636;19.390;-99.256;2023-02-28T10:41:15;3.90;;;3.53;;
20954;SDS011;10636;19.390;-99.256;2023-02-28T10:43:53;4.07;;;3.20;;
20954;SDS011;10636;19.390;-99.256;2023-02-28T10:46:41;5.10;;;3.45;;
20954;SDS011;10636;19.390;-99.256;2023-02-28T10:49:12;3.67;;;3.22;;
20954;SDS011;10636;19.390;-99.256;2023-02-28T10:51:44;3.08;;;2.78;;
20954;SDS011;10636;19.390;-99.256;2023-02-28T10:54:18;3.40;;;3.10;;
20954;SDS011;10636;19.390;-99.256;2023-02-28T10:59:36;3.70;;;3.40;;
20954;SDS011;10636;19.390;-99.256;2023-02-28T11:02:18;3.50;;;3.20;;
20954;SDS011;10636;19.390;-99.256;2023-02-28T11:04:58;3.80;;;3.10;;
20954;SDS011;10636;19.390;-99.256;2023-02-28T11:07:27;3.65;;;3.35;;
20954;SDS011;10636;19.390;-99.256;2023-02-28T11:10:00;4.03;;;3.10;;
20954;SDS011;10636;19.390;-99.256;2023-02-28T11:12:36;3.65;;;3.20;;
20954;SDS011;10636;19.390;-99.256;2023-02-28T11:15:17;3.90;;;3.25;;
20954;SDS011;10636;19.390;-99.256;2023-02-28T11:17:54;4.63;;;3.33;;
20954;SDS011;10636;19.390;-99.256;2023-02-28T11:20:25;3.90;;;3.50;;
20954;SDS011;10636;19.390;-99.256;2023-02-28T11:22:55;3.95;;;3.10;;
20954;SDS011;10636;19.390;-99.256;2023-02-28T11:25:27;5.60;;;3.38;;
20954;SDS011;10636;19.390;-99.256;2023-02-28T11:27:59;3.75;;;2.78;;
20954;SDS011;10636;19.390;-99.256;2023-02-28T11:30:33;3.40;;;3.10;;
20954;SDS011;10636;19.390;-99.256;2023-02-28T11:35:57;3.95;;;3.13;;
20954;SDS011;10636;19.390;-99.256;2023-02-28T11:38:27;4.72;;;3.33;;
20954;SDS011;10636;19.390;-99.256;2023-02-28T11:41:05;4.03;;;3.35;;
20954;SDS011;10636;19.390;-99.256;2023-02-28T11:43:53;4.85;;;3.30;;
20954;SDS011;10636;19.390;-99.256;2023-02-28T11:46:38;7.60;;;4.07;;
20954;SDS011;10636;19.390;-99.256;2023-02-28T11:49:27;5.57;;;3.90;;
20954;SDS011;10636;19.390;-99.256;2023-02-28T11:52:06;4.55;;;3.63;;
20954;SDS011;10636;19.390;-99.256;2023-02-28T11:54:55;4.43;;;3.70;;
20954;SDS011;10636;19.390;-99.256;2023-02-28T11:57:38;5.03;;;3.85;;
20954;SDS011;10636;19.390;-99.256;2023-02-28T12:00:35;6.28;;;3.75;;
20954;SDS011;10636;19.390;-99.256;2023-02-28T12:03:16;5.03;;;4.00;;
20954;SDS011;10636;19.390;-99.256;2023-02-28T12:05:56;10.88;;;9.80;;
20954;SDS011;10636;19.390;-99.256;2023-02-28T12:08:40;9.70;;;8.85;;
20954;SDS011;10636;19.390;-99.256;2023-02-28T12:11:19;10.43;;;9.43;;
20954;SDS011;10636;19.390;-99.256;2023-02-28T12:14:01;12.38;;;9.50;;
20954;SDS011;10636;19.390;-99.256;2023-02-28T12:16:53;9.75;;;8.68;;
20954;SDS011;10636;19.390;-99.256;2023-02-28T12:19:34;10.40;;;8.70;;
20954;SDS011;10636;19.390;-99.256;2023-02-28T12:22:17;8.70;;;7.90;;
20954;SDS011;10636;19.390;-99.256;2023-02-28T12:25:01;12.23;;;8.15;;
20954;SDS011;10636;19.390;-99.256;2023-02-28T12:27:47;8.48;;;7.28;;
20954;SDS011;10636;19.390;-99.256;2023-02-28T12:30:21;8.63;;;7.55;;
20954;SDS011;10636;19.390;-99.256;2023-02-28T12:32:53;8.07;;;7.28;;
20954;SDS011;10636;19.390;-99.256;2023-02-28T12:35:26;7.38;;;6.35;;
20954;SDS011;10636;19.390;-99.256;2023-02-28T12:38:02;7.80;;;6.20;;
20954;SDS011;10636;19.390;-99.256;2023-02-28T12:40:41;8.10;;;5.85;;
20954;SDS011;10636;19.390;-99.256;2023-02-28T12:43:13;7.07;;;5.65;;
20954;SDS011;10636;19.390;-99.256;2023-02-28T12:45:46;7.65;;;5.35;;
20954;SDS011;10636;19.390;-99.256;2023-02-28T12:48:19;6.85;;;5.43;;
20954;SDS011;10636;19.390;-99.256;2023-02-28T12:50:53;6.38;;;5.53;;
20954;SDS011;10636;19.390;-99.256;2023-02-28T12:53:23;7.65;;;4.90;;
20954;SDS011;10636;19.390;-99.256;2023-02-28T12:56:01;5.85;;;5.25;;
20954;SDS011;10636;19.390;-99.256;2023-02-28T12:58:38;5.55;;;4.68;;
20954;SDS011;10636;19.390;-99.256;2023-02-28T13:01:20;7.57;;;4.90;;
20954;SDS011;10636;19.390;-99.256;2023-02-28T13:04:19;6.15;;;4.60;;
20954;SDS011;10636;19.390;-99.256;2023-02-28T13:07:10;7.40;;;4.93;;
20954;SDS011;10636;19.390;-99.256;2023-02-28T13:09:56;5.15;;;4.60;;
20954;SDS011;10636;19.390;-99.256;2023-02-28T13:12:26;5.18;;;4.65;;
20954;SDS011;10636;19.390;-99.256;2023-02-28T13:15:01;6.25;;;4.68;;
20954;SDS011;10636;19.390;-99.256;2023-02-28T13:17:38;5.65;;;4.80;;
20954;SDS011;10636;19.390;-99.256;2023-02-28T13:20:14;8.27;;;4.63;;
20954;SDS011;10636;19.390;-99.256;2023-02-28T13:22:46;5.95;;;4.70;;
20954;SDS011;10636;19.390;-99.256;2023-02-28T13:31:33;8.25;;;4.72;;
20954;SDS011;10636;19.390;-99.256;2023-02-28T13:34:41;10.35;;;5.22;;
20954;SDS011;10636;19.390;-99.256;2023-02-28T13:37:34;6.43;;;4.80;;
20954;SDS011;10636;19.390;-99.256;2023-02-28T13:42:56;7.25;;;5.03;;
20954;SDS011;10636;19.390;-99.256;2023-02-28T13:45:28;8.10;;;5.25;;
20954;SDS011;10636;19.390;-99.256;2023-02-28T13:48:04;8.63;;;5.22;;
20954;SDS011;10636;19.390;-99.256;2023-02-28T13:50:45;8.02;;;5.07;;
20954;SDS011;10636;19.390;-99.256;2023-02-28T13:56:32;10.82;;;5.63;;
20954;SDS011;10636;19.390;-99.256;2023-02-28T13:59:15;9.65;;;5.82;;
20954;SDS011;10636;19.390;-99.256;2023-02-28T14:01:55;7.07;;;5.28;;
20954;SDS011;10636;19.390;-99.256;2023-02-28T14:04:51;8.52;;;5.72;;
20954;SDS011;10636;19.390;-99.256;2023-02-28T14:07:30;7.68;;;6.00;;
20954;SDS011;10636;19.390;-99.256;2023-02-28T14:10:01;9.10;;;6.18;;
20954;SDS011;10636;19.390;-99.256;2023-02-28T14:18:25;12.15;;;6.80;;
20954;SDS011;10636;19.390;-99.256;2023-02-28T14:21:08;13.48;;;7.32;;
20954;SDS011;10636;19.390;-99.256;2023-02-28T14:24:03;10.23;;;7.22;;
20954;SDS011;10636;19.390;-99.256;2023-02-28T14:27:11;9.27;;;7.45;;
20954;SDS011;10636;19.390;-99.256;2023-02-28T14:32:58;9.15;;;7.57;;
20954;SDS011;10636;19.390;-99.256;2023-02-28T14:35:40;10.27;;;7.57;;
20954;SDS011;10636;19.390;-99.256;2023-02-28T14:38:19;11.50;;;8.18;;
20954;SDS011;10636;19.390;-99.256;2023-02-28T14:40:53;14.25;;;8.13;;
20954;SDS011;10636;19.390;-99.256;2023-02-28T14:43:24;11.95;;;7.50;;
20954;SDS011;10636;19.390;-99.256;2023-02-28T14:45:55;10.88;;;7.75;;
20954;SDS011;10636;19.390;-99.256;2023-02-28T14:48:24;13.23;;;7.68;;
20954;SDS011;10636;19.390;-99.256;2023-02-28T14:50:55;13.48;;;7.35;;
20954;SDS011;10636;19.390;-99.256;2023-02-28T14:53:25;11.57;;;7.80;;
20954;SDS011;10636;19.390;-99.256;2023-02-28T14:55:58;9.73;;;7.20;;
20954;SDS011;10636;19.390;-99.256;2023-02-28T14:58:27;10.23;;;7.07;;
20954;SDS011;10636;19.390;-99.256;2023-02-28T15:00:58;11.85;;;7.95;;
20954;SDS011;10636;19.390;-99.256;2023-02-28T15:03:30;12.93;;;8.07;;
20954;SDS011;10636;19.390;-99.256;2023-02-28T15:06:00;12.18;;;7.93;;
20954;SDS011;10636;19.390;-99.256;2023-02-28T15:08:30;11.73;;;7.93;;
20954;SDS011;10636;19.390;-99.256;2023-02-28T15:11:03;15.90;;;8.25;;
20954;SDS011;10636;19.390;-99.256;2023-02-28T15:13:36;15.38;;;8.52;;
20954;SDS011;10636;19.390;-99.256;2023-02-28T15:16:08;14.68;;;8.70;;
20954;SDS011;10636;19.390;-99.256;2023-02-28T15:18:42;15.35;;;8.35;;
20954;SDS011;10636;19.390;-99.256;2023-02-28T15:21:16;16.15;;;8.93;;
20954;SDS011;10636;19.390;-99.256;2023-02-28T15:23:46;12.40;;;8.43;;
20954;SDS011;10636;19.390;-99.256;2023-02-28T15:26:21;13.43;;;9.13;;
20954;SDS011;10636;19.390;-99.256;2023-02-28T15:28:56;13.90;;;8.82;;